createdAt,value
2018-07-28T00:03:04.116Z,17.30
2018-07-28T00:07:08.803Z,17.30
2018-07-28T00:11:13.061Z,17.30
2018-07-28T00:15:17.324Z,17.10
2018-07-28T00:19:21.745Z,17.00
2018-07-28T00:23:25.968Z,16.90
2018-07-28T00:27:31.341Z,16.90
2018-07-28T00:31:35.590Z,16.80
2018-07-28T00:35:40.034Z,16.70
2018-07-28T00:39:44.297Z,16.70
2018-07-28T00:43:48.652Z,16.70
2018-07-28T00:47:52.869Z,16.70
2018-07-28T00:51:57.244Z,16.60
2018-07-28T00:56:01.489Z,16.50
2018-07-28T01:00:07.134Z,16.50
2018-07-28T01:04:11.463Z,16.50
2018-07-28T01:08:15.686Z,16.50
2018-07-28T01:12:19.864Z,16.40
2018-07-28T01:16:24.273Z,16.50
2018-07-28T01:20:28.674Z,16.30
2018-07-28T01:24:32.945Z,16.30
2018-07-28T01:28:37.286Z,16.20
2018-07-28T01:32:41.627Z,16.10
2018-07-28T01:36:46.954Z,16.00
2018-07-28T01:40:51.180Z,16.00
2018-07-28T01:44:55.467Z,15.90
2018-07-28T01:48:59.749Z,15.90
2018-07-28T01:53:03.956Z,15.90
2018-07-28T01:57:08.185Z,15.90
2018-07-28T02:01:12.628Z,15.90
2018-07-28T02:05:16.888Z,15.90
2018-07-28T02:09:21.224Z,15.80
2018-07-28T02:13:25.586Z,15.80
2018-07-28T02:17:29.873Z,15.70
2018-07-28T02:21:34.238Z,15.60
2018-07-28T02:25:38.771Z,15.80
2018-07-28T02:29:42.984Z,15.70
2018-07-28T02:33:47.359Z,15.50
2018-07-28T02:37:51.625Z,15.50
2018-07-28T02:41:55.834Z,15.60
2018-07-28T02:46:00.201Z,15.50
2018-07-28T02:50:05.328Z,15.40
2018-07-28T02:54:09.660Z,15.40
2018-07-28T02:58:13.884Z,15.50
2018-07-28T03:02:18.105Z,15.40
2018-07-28T03:06:22.441Z,15.30
2018-07-28T03:10:26.701Z,15.40
2018-07-28T03:14:31.046Z,15.30
2018-07-28T03:18:35.411Z,15.30
2018-07-28T03:22:39.668Z,15.40
2018-07-28T03:26:43.952Z,15.30
2018-07-28T03:30:48.388Z,15.30
2018-07-28T03:34:52.614Z,15.10
2018-07-28T03:38:56.892Z,15.30
2018-07-28T03:43:01.145Z,15.20
2018-07-28T03:47:05.405Z,15.20
2018-07-28T03:51:09.715Z,15.10
2018-07-28T03:55:13.965Z,15.10
2018-07-28T03:59:18.219Z,15.10
2018-07-28T04:03:22.504Z,15.20
2018-07-28T04:07:26.761Z,15.40
2018-07-28T04:11:31.050Z,15.60
2018-07-28T04:15:35.269Z,15.60
2018-07-28T04:19:39.500Z,15.60
2018-07-28T04:23:43.792Z,15.60
2018-07-28T04:27:48.237Z,15.70
2018-07-28T04:31:52.469Z,15.80
2018-07-28T04:35:56.770Z,15.90
2018-07-28T04:40:01.046Z,16.00
2018-07-28T04:44:05.339Z,16.00
2018-07-28T04:48:09.730Z,16.00
2018-07-28T04:52:13.956Z,16.10
2018-07-28T04:56:18.310Z,16.30
2018-07-28T05:00:22.533Z,16.30
2018-07-28T05:04:26.967Z,16.40
2018-07-28T05:08:31.616Z,16.60
2018-07-28T05:12:36.034Z,16.50
2018-07-28T05:16:40.353Z,16.50
2018-07-28T05:20:45.001Z,16.50
2018-07-28T05:24:49.235Z,16.60
2018-07-28T05:28:53.611Z,16.60
2018-07-28T05:32:58.874Z,16.50
2018-07-28T05:37:05.280Z,16.60
2018-07-28T05:41:16.750Z,16.70
2018-07-28T05:45:24.427Z,16.90
2018-07-28T05:49:28.867Z,17.10
2018-07-28T05:53:33.395Z,17.20
2018-07-28T05:57:37.676Z,17.20
2018-07-28T06:01:47.795Z,17.30
2018-07-28T06:05:58.749Z,17.40
2018-07-28T06:10:08.400Z,17.50
2018-07-28T06:14:17.516Z,17.80
2018-07-28T06:18:26.574Z,17.90
2018-07-28T06:22:35.972Z,18.10
2018-07-28T06:26:44.538Z,18.30
2018-07-28T06:30:55.118Z,18.50
2018-07-28T06:35:04.600Z,18.70
2018-07-28T06:39:16.485Z,18.70
2018-07-28T06:43:25.578Z,18.90
2018-07-28T06:47:35.396Z,19.10
2018-07-28T06:51:45.153Z,19.20
2018-07-28T06:55:56.282Z,19.40
2018-07-28T07:00:05.888Z,19.60
2018-07-28T07:04:17.008Z,19.80
2018-07-28T07:08:26.502Z,19.90
2018-07-28T07:12:36.293Z,20.00
2018-07-28T07:16:45.977Z,20.10
2018-07-28T07:20:54.884Z,20.30
2018-07-28T07:25:04.922Z,20.60
2018-07-28T07:29:13.166Z,20.90
2018-07-28T07:33:24.029Z,21.10
2018-07-28T07:37:32.717Z,21.30
2018-07-28T07:41:42.259Z,21.60
2018-07-28T07:45:52.545Z,21.90
2018-07-28T07:50:01.954Z,22.20
2018-07-28T07:54:11.730Z,22.50
2018-07-28T07:58:21.371Z,22.50
2018-07-28T08:02:32.349Z,22.70
2018-07-28T08:06:41.756Z,22.90
2018-07-28T08:10:51.438Z,22.90
2018-07-28T08:15:01.181Z,23.20
2018-07-28T08:19:10.368Z,23.60
2018-07-28T08:23:20.558Z,23.80
2018-07-28T08:27:31.800Z,23.90
2018-07-28T08:31:42.402Z,23.80
2018-07-28T08:35:52.324Z,23.90
2018-07-28T08:40:03.527Z,24.30
2018-07-28T08:44:13.363Z,24.60
2018-07-28T08:48:22.844Z,24.90
2018-07-28T08:52:32.756Z,25.20
2018-07-28T08:56:42.542Z,26.00
2018-07-28T09:00:53.373Z,27.20
2018-07-28T09:05:03.157Z,28.10
2018-07-28T09:09:14.468Z,28.70
2018-07-28T09:13:24.021Z,28.90
2018-07-28T09:17:33.811Z,29.30
2018-07-28T09:21:43.533Z,28.50
2018-07-28T09:25:53.199Z,29.30
2018-07-28T09:30:02.817Z,29.80
2018-07-28T09:34:12.824Z,30.20
2018-07-28T09:38:22.607Z,30.60
2018-07-28T09:42:33.600Z,29.90
2018-07-28T09:46:42.692Z,30.40
2018-07-28T09:50:52.119Z,31.10
2018-07-28T09:55:01.880Z,31.50
2018-07-28T09:59:10.843Z,32.00
2018-07-28T10:03:19.876Z,31.80
2018-07-28T10:07:28.720Z,30.90
2018-07-28T10:11:38.635Z,30.60
2018-07-28T10:15:48.371Z,30.90
2018-07-28T10:20:02.374Z,31.50
2018-07-28T10:24:12.313Z,31.40
2018-07-28T10:28:23.133Z,30.00
2018-07-28T10:32:32.913Z,31.30
2018-07-28T10:36:43.889Z,31.70
2018-07-28T10:40:53.840Z,31.60
2018-07-28T10:45:03.895Z,31.80
2018-07-28T10:49:13.021Z,32.50
2018-07-28T10:53:22.177Z,32.30
2018-07-28T10:57:31.235Z,34.20
2018-07-28T11:01:40.193Z,34.10
2018-07-28T11:05:50.638Z,33.40
2018-07-28T11:10:00.318Z,33.50
2018-07-28T11:14:09.595Z,33.50
2018-07-28T11:18:19.218Z,33.50
2018-07-28T11:22:23.768Z,32.70
2018-07-28T11:26:28.211Z,33.00
2018-07-28T11:30:32.361Z,33.20
2018-07-28T11:34:47.527Z,33.20
2018-07-28T11:39:02.991Z,34.40
2018-07-28T11:43:18.320Z,35.30
2018-07-28T11:47:22.625Z,33.30
2018-07-28T11:51:27.448Z,32.70
2018-07-28T11:55:32.909Z,34.00
2018-07-28T11:59:37.483Z,35.60
2018-07-28T12:03:41.730Z,35.30
2018-07-28T12:07:46.192Z,34.20
2018-07-28T12:11:50.410Z,35.10
2018-07-28T12:15:54.703Z,35.20
2018-07-28T12:19:58.974Z,36.90
2018-07-28T12:24:03.496Z,37.20
2018-07-28T12:28:07.989Z,36.70
2018-07-28T12:32:12.217Z,37.50
2018-07-28T12:36:16.457Z,37.50
2018-07-28T12:40:20.789Z,37.30
2018-07-28T12:44:25.171Z,38.60
2018-07-28T12:48:29.384Z,38.90
2018-07-28T12:52:33.675Z,37.90
2018-07-28T12:56:37.937Z,37.20
2018-07-28T13:00:42.191Z,37.80
2018-07-28T13:04:46.656Z,38.70
2018-07-28T13:08:50.935Z,37.70
2018-07-28T13:12:55.314Z,37.70
2018-07-28T13:16:59.699Z,38.10
2018-07-28T13:21:03.963Z,38.80
2018-07-28T13:25:08.401Z,39.90
2018-07-28T13:29:12.588Z,39.50
2018-07-28T13:33:18.664Z,37.80
2018-07-28T13:37:23.094Z,39.00
2018-07-28T13:41:29.152Z,38.50
2018-07-28T13:45:33.471Z,38.70
2018-07-28T13:49:37.813Z,40.50
2018-07-28T13:53:42.072Z,41.20
2018-07-28T13:57:46.385Z,39.80
2018-07-28T14:01:50.933Z,40.70
2018-07-28T14:06:00.991Z,38.70
2018-07-28T14:10:12.579Z,38.10
2018-07-28T14:14:23.531Z,39.40
2018-07-28T14:18:33.115Z,39.00
2018-07-28T14:22:42.934Z,38.40
2018-07-28T14:26:50.783Z,38.10
2018-07-28T14:30:59.786Z,37.80
2018-07-28T14:35:07.838Z,36.50
2018-07-28T14:39:17.814Z,36.70
2018-07-28T14:43:25.966Z,37.90
2018-07-28T14:47:34.647Z,38.60
2018-07-28T14:51:43.498Z,39.10
2018-07-28T14:55:52.220Z,38.20
2018-07-28T15:00:01.025Z,38.20
2018-07-28T15:04:11.643Z,38.80
2018-07-28T15:08:24.930Z,38.20
2018-07-28T15:12:34.408Z,38.20
2018-07-28T15:16:46.235Z,38.10
2018-07-28T15:20:55.713Z,39.30
2018-07-28T15:25:08.551Z,39.30
2018-07-28T15:29:17.170Z,38.50
2018-07-28T15:33:27.850Z,37.50
2018-07-28T15:37:37.371Z,38.30
2018-07-28T15:41:49.116Z,38.80
2018-07-28T15:45:58.362Z,39.00
2018-07-28T15:50:07.634Z,37.90
2018-07-28T15:54:18.044Z,37.80
2018-07-28T15:58:27.173Z,36.80
2018-07-28T16:02:37.252Z,36.00
2018-07-28T16:06:45.978Z,36.00
2018-07-28T16:10:54.612Z,36.00
2018-07-28T16:15:03.317Z,36.20
2018-07-28T16:19:11.751Z,36.00
2018-07-28T16:23:16.023Z,36.50
2018-07-28T16:27:20.382Z,35.80
2018-07-28T16:31:24.687Z,35.70
2018-07-28T16:35:28.949Z,34.30
2018-07-28T16:39:33.281Z,32.10
2018-07-28T16:43:37.545Z,30.80
2018-07-28T16:47:41.800Z,30.00
2018-07-28T16:51:46.102Z,29.80
2018-07-28T16:55:50.472Z,29.40
2018-07-28T16:59:54.693Z,29.20
2018-07-28T17:03:59.010Z,29.00
2018-07-28T17:08:03.495Z,28.80
2018-07-28T17:12:07.861Z,28.50
2018-07-28T17:16:12.102Z,28.20
2018-07-28T17:20:16.362Z,28.10
2018-07-28T17:24:20.965Z,27.70
2018-07-28T17:28:25.385Z,27.60
2018-07-28T17:32:29.765Z,27.40
2018-07-28T17:36:34.040Z,27.10
2018-07-28T17:40:38.336Z,26.90
2018-07-28T17:44:42.623Z,26.70
2018-07-28T17:48:46.857Z,26.50
2018-07-28T17:52:51.320Z,26.40
2018-07-28T17:56:55.623Z,26.30
2018-07-28T18:00:59.840Z,26.30
2018-07-28T18:05:04.607Z,26.10
2018-07-28T18:09:10.093Z,26.20
2018-07-28T18:13:14.330Z,26.10
2018-07-28T18:17:18.601Z,26.20
2018-07-28T18:21:22.930Z,26.10
2018-07-28T18:25:27.418Z,26.20
2018-07-28T18:29:32.000Z,26.20
2018-07-28T18:33:36.418Z,26.00
2018-07-28T18:37:41.512Z,25.80
2018-07-28T18:41:50.879Z,25.70
2018-07-28T18:46:00.151Z,25.40
2018-07-28T18:50:09.482Z,25.30
2018-07-28T18:54:19.432Z,25.00
2018-07-28T18:58:29.880Z,24.90
2018-07-28T19:02:39.457Z,24.80
2018-07-28T19:06:48.741Z,24.50
2018-07-28T19:10:57.934Z,24.00
2018-07-28T19:15:07.162Z,23.80
2018-07-28T19:19:20.178Z,23.70
2018-07-28T19:23:33.558Z,23.60
2018-07-28T19:27:45.482Z,23.50
2018-07-28T19:31:55.911Z,23.50
2018-07-28T19:36:09.524Z,23.30
2018-07-28T19:40:17.491Z,23.40
2018-07-28T19:44:26.344Z,23.50
2018-07-28T19:48:37.024Z,23.30
2018-07-28T19:52:46.796Z,22.90
2018-07-28T19:56:56.600Z,23.10
2018-07-28T20:01:05.951Z,22.90
2018-07-28T20:05:15.917Z,22.70
2018-07-28T20:09:25.499Z,22.70
2018-07-28T20:13:34.942Z,22.70
2018-07-28T20:17:46.678Z,22.50
2018-07-28T20:21:55.995Z,22.20
2018-07-28T20:26:05.105Z,22.00
2018-07-28T20:30:15.238Z,21.80
2018-07-28T20:34:29.236Z,21.70
2018-07-28T20:38:39.145Z,21.60
2018-07-28T20:42:48.913Z,21.50
2018-07-28T20:46:58.772Z,21.40
2018-07-28T20:51:08.600Z,21.50
2018-07-28T20:55:17.522Z,21.40
2018-07-28T20:59:30.679Z,21.40
2018-07-28T21:03:40.729Z,21.30
2018-07-28T21:07:45.146Z,21.30
2018-07-28T21:11:49.389Z,21.50
2018-07-28T21:15:53.726Z,21.50
2018-07-28T21:19:57.983Z,21.30
2018-07-28T21:24:02.358Z,21.10
2018-07-28T21:28:06.916Z,21.20
2018-07-28T21:32:11.864Z,21.10
2018-07-28T21:36:16.172Z,21.00
2018-07-28T21:40:20.722Z,21.00
2018-07-28T21:44:26.193Z,20.90
2018-07-28T21:48:30.763Z,20.80
2018-07-28T21:52:34.969Z,21.00
2018-07-28T21:56:39.201Z,20.80
2018-07-28T22:00:48.847Z,20.80
2018-07-28T22:04:53.419Z,20.90
2018-07-28T22:08:57.766Z,20.90
2018-07-28T22:13:02.119Z,20.90
2018-07-28T22:17:06.741Z,20.90
2018-07-28T22:21:12.145Z,20.80
2018-07-28T22:25:16.413Z,20.70
2018-07-28T22:29:20.792Z,20.80
2018-07-28T22:33:25.174Z,20.60
2018-07-28T22:37:29.456Z,20.50
2018-07-28T22:41:33.760Z,20.30
2018-07-28T22:45:38.060Z,20.30
2018-07-28T22:49:42.293Z,20.00
2018-07-28T22:53:46.545Z,20.00
2018-07-28T22:57:50.764Z,19.80
2018-07-28T23:01:54.997Z,19.70
2018-07-28T23:05:59.308Z,19.70
2018-07-28T23:10:03.709Z,19.50
2018-07-28T23:14:08.148Z,19.50
2018-07-28T23:18:12.548Z,19.60
2018-07-28T23:22:16.811Z,19.40
2018-07-28T23:26:21.148Z,19.20
2018-07-28T23:30:25.370Z,19.20
2018-07-28T23:34:29.617Z,19.10
2018-07-28T23:38:34.012Z,19.00
2018-07-28T23:42:38.412Z,19.00
2018-07-28T23:46:42.696Z,18.90
2018-07-28T23:50:47.057Z,19.00
2018-07-28T23:54:51.346Z,18.80
2018-07-28T23:58:55.565Z,18.70
